Petersburg, AK

3:19 PM AKDT on March 28, 2015 (GMT -0800)
Johnson Petersburg | | Change Station
CLOSE
Current Station
Airport
Location: Petersburg,
Elevation: 0 ft
Nearby Weather Stations

Elev 0 ft 56.82 °N, 132.97 °W | Updated 23 minutes ago

Light Rain Showers
Light Showers Rain
45 °F
Feels Like 41 °F
N
7
Wind Variable Wind from ENE

Today
High -- | Low -- °F
--% Chance of Precip.
Yesterday
High -- | Low -- °F
Precip. -- in
6:33 AM 7:24 PM
Waxing Gibbous, 66% visible
Pressure 29.62 in
Visibility 7.0 miles
Clouds Few 3100 ft
Overcast 4100 ft
Windchill 41 °F
Dew Point 36 °F
Humidity 71%
Rainfall 0.00 in
Snow Depth Not available.
UV 1 out of 12
Pollen Not available.
Air Quality Not available.
Flu Activity Not available.
METAR PAPG 282256Z 06006KT 7SM -SHRA FEW031 OVC041 07/02 A2962

More Conditions Fewer Conditions

Pressure 29.62 in
Visibility 7.0 miles
Clouds Few 3100 ft
Overcast 4100 ft
Windchill 41 °F
Dew Point 36 °F
Humidity 71%
Rainfall 0.00 in
Snow Depth Not available.
UV 1 out of 12
Pollen Not available.
Air Quality Not available.
Flu Activity Not available.
METAR PAPG 282256Z 06006KT 7SM -SHRA FEW031 OVC041 07/02 A2962

More Conditions Fewer Conditions

10-Day Weather Forecast

Almanac

Astronomy

Mar. 28, 2015 Rise Set
Actual Time
Civil Twilight
Nautical Twilight
Astronomical Twilight
Moon
Length of Visible Light
Length of Day
Tomorrow will be .
, % of the Moon is Illuminated

Today's Extremes

State Highs State Lows

Community

WunderPhotos

Upload Photos

1,809,124 photos uploaded!

WunderBlogs® & News

Nearby

Air Quality

  Air Quality AQ Index Pollutant
Not available.

Snow Depth

Station Depth Elevation

Earthquake Activity

City Distance Mag. Time & Date
Minimum magnitude displayed is 2.5.

Coastal Water Temperatures

Place Temperature

Stations

Nearby Weather Stations

Station Location Temp. Windchill Dew Point Humidity Wind Precip. Elev Updated Type